• Join FlightAware (Why Join?)
  • Login
  • US Flag 
11:22PM EDT


 

Airport Tracker/Info


-or-


 

Live Flight TrackerFlight Track Log ✈ JIA2416 ✈ 23-Jun-2013 ✈ KCLT - KPGV

Flight Track Log - Related Links

Times and Time Zones

All times are in EDT time to prevent confusion due to time zone crossing. See the JIA2416 flight status page for this flight to view local times or setup timezone preferences in your user account.

Time Position Orientation Groundspeed Altitude Reporting Facility
EDT Latitude Longitude Course Direction KTS MPH feet Rate Location/Type
06:04PM 35.1928 -80.9356 North 162 186 1,400  Level Atlanta Center
06:05PM 35.1167 -80.8903 154° Southeast 260 299 4,000 2,040 Climbing Atlanta Center
06:06PM 35.1000 -80.6592 90° East  Level FlightAware Approximate
06:06PM 35.0936 -80.8072 109° East 287 330 6,700  Level Atlanta Center
06:07PM 35.1679 -80.5881 29° Northeast  Level FlightAware Approximate
06:07PM 35.1269 -80.7297 62° Northeast 297 342 8,300  Level Atlanta Center
06:08PM 35.2535 -80.5285 30° Northeast  Level FlightAware Approximate
06:08PM 35.1686 -80.6519 57° Northeast 322 371 10,700  Level Atlanta Center
06:09PM 35.3284 -80.4667 North  Level FlightAware Approximate
06:09PM 35.2161 -80.5586 58° Northeast 322 371 12,500  Level Atlanta Center
06:10PM 35.2678 -80.4622 57° Northeast 322 371 14,600 1,800 Climbing Atlanta Center
06:12PM 35.3767 -80.2511 58° Northeast 344 396 18,200 1,500 Climbing Washington Center
06:13PM 35.4308 -80.1447 58° Northeast 349 402 19,500 1,140 Climbing Washington Center
06:14PM 35.4822 -80.0533 55° Northeast 354 407 20,500 720 Climbing Washington Center
06:15PM 35.5367 -79.9389 60° Northeast 359 413 21,000 240 Climbing Washington Center
06:16PM 35.5864 -79.8292 61° Northeast 370 426 21,000  Level Washington Center
06:17PM 35.6406 -79.7172 59° Northeast 375 432 21,000  Level Washington Center
06:18PM 35.6908 -79.5892 64° Northeast 370 426 21,000  Level Washington Center
06:19PM 35.7275 -79.4836 67° East 370 426 21,000  Level Washington Center
06:20PM 35.7253 -79.3583 91° East 354 407 21,000  Level Washington Center
06:21PM 35.7211 -79.2300 92° East 359 413 21,000  Level Washington Center
06:22PM 35.7147 -79.0942 93° East 367 422 21,000  Level Washington Center
06:23PM 35.7100 -78.9661 93° East 367 422 21,000  Level Washington Center
06:24PM 35.7053 -78.8381 93° East 367 422 21,000 -180 Level Washington Center
06:25PM 35.7003 -78.7100 93° East 367 422 20,700 -1,200 Descending Washington Center
06:26PM 35.6950 -78.5869 93° East 367 422 18,700 -1,860 Descending Washington Center
06:27PM 35.6919 -78.4642 92° East 367 422 17,100 -1,680 Descending Washington Center
06:28PM 35.6839 -78.3511 95° East 356 410 15,300 -1,800 Descending Washington Center
06:29PM 35.6803 -78.2386 92° East 337 388 13,600 -1,260 Descending Washington Center
06:30PM 35.6744 -78.1283 94° East 331 381 12,900 -720 Descending Washington Center
06:31PM 35.6683 -78.0208 94° East 326 375 12,200 -1,380 Descending Washington Center
06:32PM 35.6642 -77.9133 93° East 321 369 10,200 -2,040 Descending Washington Center
06:33PM 35.6578 -77.8136 94° East 309 356 8,200 -2,040 Descending Washington Center
06:34PM 35.6531 -77.7161 93° East 298 343 6,200 -1,980 Descending Washington Center
06:35PM 35.6486 -77.6217 93° East 286 329 4,400 -1,620 Descending Washington Center
06:36PM 35.6439 -77.5319 94° East 273 314 3,000 -960 Descending Washington Center
06:37PM 35.6450 -77.4578 89° East 244 281 2,500 -720 Descending Washington Center
06:38PM 35.6397 -77.3889 95° East 215 247 1,600 -480 Descending Washington Center
06:39PM 35.6511 -77.3303 77° East 192 221 1,600  Level Washington Center